createdAt,value
2022-10-04T00:02:24.681Z,93.30
2022-10-04T00:05:15.509Z,93.60
2022-10-04T00:07:57.583Z,93.40
2022-10-04T00:10:30.038Z,93.40
2022-10-04T00:12:59.050Z,93.30
2022-10-04T00:15:34.277Z,93.30
2022-10-04T00:18:41.825Z,93.30
2022-10-04T00:21:09.314Z,93.40
2022-10-04T00:23:35.310Z,93.30
2022-10-04T00:26:02.353Z,93.30
2022-10-04T00:28:39.160Z,93.30
2022-10-04T00:31:12.612Z,93.30
2022-10-04T00:33:47.334Z,93.30
2022-10-04T00:36:35.701Z,93.30
2022-10-04T00:39:07.410Z,93.30
2022-10-04T00:41:48.544Z,93.30
2022-10-04T00:44:26.612Z,93.30
2022-10-04T00:46:55.117Z,93.20
2022-10-04T00:49:24.597Z,93.20
2022-10-04T00:51:59.204Z,93.20
2022-10-04T00:54:38.001Z,93.30
2022-10-04T00:57:11.876Z,93.30
2022-10-04T00:59:41.661Z,93.40
2022-10-04T01:02:18.053Z,93.40
2022-10-04T01:04:53.311Z,93.40
2022-10-04T01:07:28.136Z,93.40
2022-10-04T01:10:10.303Z,93.30
2022-10-04T01:12:48.934Z,93.30
2022-10-04T01:15:36.064Z,93.30
2022-10-04T01:18:20.752Z,93.20
2022-10-04T01:21:08.350Z,93.20
2022-10-04T01:23:56.527Z,93.30
2022-10-04T01:26:28.834Z,93.30
2022-10-04T01:28:58.277Z,93.30
2022-10-04T01:31:25.961Z,93.40
2022-10-04T01:33:53.458Z,93.40
2022-10-04T01:36:20.104Z,93.50
2022-10-04T01:38:47.264Z,93.40
2022-10-04T01:41:18.239Z,93.80
2022-10-04T01:43:50.479Z,93.60
2022-10-04T01:46:31.357Z,93.70
2022-10-04T01:49:02.340Z,93.70
2022-10-04T01:51:36.173Z,93.80
2022-10-04T01:54:08.160Z,93.70
2022-10-04T01:57:17.580Z,93.70
2022-10-04T01:59:56.979Z,93.80
2022-10-04T02:02:31.668Z,93.90
2022-10-04T02:04:59.907Z,93.90
2022-10-04T02:07:30.948Z,94.00
2022-10-04T02:10:04.209Z,94.00
2022-10-04T02:12:31.232Z,94.20
2022-10-04T02:15:01.180Z,94.30
2022-10-04T02:17:33.331Z,94.40
2022-10-04T02:20:01.473Z,94.70
2022-10-04T02:22:29.645Z,94.60
2022-10-04T02:24:57.408Z,94.80
2022-10-04T02:27:29.462Z,94.90
2022-10-04T02:30:04.931Z,95.00
2022-10-04T02:32:51.522Z,95.00
2022-10-04T02:35:19.470Z,95.00
2022-10-04T02:37:53.458Z,95.00
2022-10-04T02:40:26.326Z,95.00
2022-10-04T02:43:09.552Z,95.10
2022-10-04T02:45:46.822Z,95.10
2022-10-04T02:48:38.590Z,95.20
2022-10-04T02:51:28.015Z,95.20
2022-10-04T02:54:33.240Z,95.20
2022-10-04T02:57:00.609Z,95.10
2022-10-04T02:59:33.551Z,95.10
2022-10-04T03:02:04.217Z,95.10
2022-10-04T03:04:33.991Z,95.20
2022-10-04T03:07:04.437Z,95.30
2022-10-04T03:09:30.978Z,95.40
2022-10-04T03:11:57.411Z,95.50
2022-10-04T03:14:27.620Z,95.60
2022-10-04T03:16:57.352Z,95.60
2022-10-04T03:19:26.200Z,95.60
2022-10-04T03:21:57.390Z,95.80
2022-10-04T03:24:32.631Z,95.60
2022-10-04T03:27:02.686Z,95.60
2022-10-04T03:29:34.618Z,95.70
2022-10-04T03:32:03.715Z,95.70
2022-10-04T03:34:41.228Z,95.70
2022-10-04T03:37:20.092Z,95.80
2022-10-04T03:39:49.525Z,95.80
2022-10-04T03:42:23.361Z,95.80
2022-10-04T03:44:53.366Z,95.80
2022-10-04T03:47:25.762Z,95.90
2022-10-04T03:49:55.000Z,95.90
2022-10-04T03:52:27.040Z,95.90
2022-10-04T03:54:56.600Z,95.90
2022-10-04T03:57:23.093Z,95.80
2022-10-04T03:59:50.205Z,95.90
2022-10-04T04:02:31.051Z,96.00
2022-10-04T04:05:15.821Z,96.10
2022-10-04T04:08:06.424Z,96.10
2022-10-04T04:10:41.688Z,96.10
2022-10-04T04:13:10.981Z,96.10
2022-10-04T04:15:42.641Z,96.10
2022-10-04T04:18:22.425Z,96.10
2022-10-04T04:20:58.441Z,96.20
2022-10-04T04:23:32.506Z,96.30
2022-10-04T04:26:14.039Z,96.30
2022-10-04T04:28:48.347Z,96.30
2022-10-04T04:31:17.452Z,96.30
2022-10-04T04:34:01.876Z,96.30
2022-10-04T04:36:39.572Z,96.40
2022-10-04T04:39:37.586Z,96.40
2022-10-04T04:42:18.289Z,96.40
2022-10-04T04:44:59.669Z,96.40
2022-10-04T04:47:33.030Z,96.50
2022-10-04T04:50:08.278Z,96.50
2022-10-04T04:52:35.402Z,96.50
2022-10-04T04:55:02.821Z,96.60
2022-10-04T04:57:28.937Z,96.60
2022-10-04T04:59:59.177Z,96.60
2022-10-04T05:02:36.871Z,96.70
2022-10-04T05:05:22.007Z,96.70
2022-10-04T05:07:48.488Z,96.70
2022-10-04T05:10:22.685Z,96.80
2022-10-04T05:12:49.761Z,96.80
2022-10-04T05:15:19.441Z,96.80
2022-10-04T05:17:45.892Z,96.80
2022-10-04T05:20:14.011Z,96.80
2022-10-04T05:22:45.725Z,96.90
2022-10-04T05:25:32.801Z,96.90
2022-10-04T05:27:59.377Z,96.90
2022-10-04T05:30:56.411Z,97.00
2022-10-04T05:33:44.988Z,97.00
2022-10-04T05:36:11.407Z,97.00
2022-10-04T05:38:50.038Z,97.00
2022-10-04T05:41:43.277Z,97.00
2022-10-04T05:44:18.983Z,97.10
2022-10-04T05:46:45.657Z,97.00
2022-10-04T05:49:18.994Z,97.00
2022-10-04T05:51:59.406Z,97.00
2022-10-04T05:54:28.432Z,97.10
2022-10-04T05:57:38.476Z,97.30
2022-10-04T06:00:17.577Z,97.00
2022-10-04T06:02:58.829Z,96.90
2022-10-04T06:05:48.087Z,96.90
2022-10-04T06:08:14.051Z,96.90
2022-10-04T06:11:05.136Z,96.90
2022-10-04T06:14:10.485Z,96.90
2022-10-04T06:17:01.099Z,96.80
2022-10-04T06:19:43.511Z,96.70
2022-10-04T06:22:22.095Z,96.70
2022-10-04T06:25:00.264Z,96.60
2022-10-04T06:27:41.146Z,96.60
2022-10-04T06:30:16.101Z,96.70
2022-10-04T06:32:57.654Z,96.70
2022-10-04T06:35:30.119Z,96.70
2022-10-04T06:38:21.716Z,96.90
2022-10-04T06:41:21.545Z,97.00
2022-10-04T06:43:53.924Z,97.30
2022-10-04T06:46:39.545Z,97.20
2022-10-04T06:49:19.085Z,97.20
2022-10-04T06:52:18.780Z,97.10
2022-10-04T06:55:07.886Z,97.10
2022-10-04T06:57:50.452Z,96.80
2022-10-04T07:00:25.644Z,96.60
2022-10-04T07:03:09.336Z,96.40
2022-10-04T07:05:42.609Z,96.20
2022-10-04T07:08:47.230Z,95.90
2022-10-04T07:11:13.416Z,95.60
2022-10-04T07:14:05.308Z,95.30
2022-10-04T07:16:54.507Z,95.00
2022-10-04T07:19:33.122Z,94.80
2022-10-04T07:22:05.598Z,94.60
2022-10-04T07:24:37.522Z,94.50
2022-10-04T07:27:10.086Z,94.40
2022-10-04T07:29:45.142Z,94.30
2022-10-04T07:32:22.544Z,94.30
2022-10-04T07:35:06.759Z,94.40
2022-10-04T07:38:25.701Z,94.30
2022-10-04T07:40:58.303Z,94.40
2022-10-04T07:43:31.785Z,94.90
2022-10-04T07:46:37.213Z,92.20
2022-10-04T07:49:03.900Z,86.50
2022-10-04T07:51:41.228Z,79.50
2022-10-04T07:54:48.695Z,70.70
2022-10-04T07:57:27.347Z,65.60
2022-10-04T08:00:16.806Z,64.90
2022-10-04T08:02:49.096Z,64.30
2022-10-04T08:05:33.409Z,64.60
2022-10-04T08:08:31.068Z,64.50
2022-10-04T08:11:16.714Z,65.30
2022-10-04T08:14:01.767Z,65.70
2022-10-04T08:16:33.556Z,62.60
2022-10-04T08:19:09.507Z,59.20
2022-10-04T08:21:58.566Z,55.90
2022-10-04T08:24:53.221Z,53.40
2022-10-04T08:28:02.653Z,51.60
2022-10-04T08:30:40.213Z,51.00
2022-10-04T08:33:41.904Z,50.20
2022-10-04T08:36:54.812Z,48.50
2022-10-04T08:39:35.577Z,46.90
2022-10-04T08:42:25.027Z,46.00
2022-10-04T08:45:07.160Z,46.10
2022-10-04T08:48:07.503Z,45.40
2022-10-04T08:50:54.742Z,44.70
2022-10-04T08:53:45.414Z,42.50
2022-10-04T08:56:49.088Z,42.30
2022-10-04T08:59:51.500Z,41.30
2022-10-04T09:02:53.243Z,40.90
2022-10-04T09:06:05.808Z,40.70
2022-10-04T09:09:05.907Z,40.60
2022-10-04T09:11:57.834Z,39.40
2022-10-04T09:14:58.169Z,38.00
2022-10-04T09:17:46.196Z,38.70
2022-10-04T09:20:41.571Z,37.40
2022-10-04T09:23:14.154Z,37.50
2022-10-04T09:26:07.568Z,37.50
2022-10-04T09:29:05.193Z,36.70
2022-10-04T09:32:16.654Z,39.50
2022-10-04T09:35:03.332Z,42.50
2022-10-04T09:37:35.731Z,44.80
2022-10-04T09:40:28.276Z,43.20
2022-10-04T09:43:04.385Z,42.60
2022-10-04T09:46:05.010Z,42.50
2022-10-04T09:48:46.247Z,40.70
2022-10-04T09:51:12.502Z,40.20
2022-10-04T09:53:45.601Z,41.20
2022-10-04T09:56:37.252Z,42.50
2022-10-04T09:59:22.172Z,43.30
2022-10-04T10:01:54.498Z,41.00
2022-10-04T10:04:29.453Z,39.00
2022-10-04T10:07:10.604Z,38.10
2022-10-04T10:10:01.457Z,36.40
2022-10-04T10:13:08.155Z,36.30
2022-10-04T10:16:03.112Z,36.60
2022-10-04T10:18:56.312Z,36.90
2022-10-04T10:21:51.212Z,37.00
2022-10-04T10:24:57.443Z,37.10
2022-10-04T10:27:36.578Z,36.80
2022-10-04T10:30:11.700Z,35.40
2022-10-04T10:32:56.465Z,34.50
2022-10-04T10:35:34.322Z,34.10
2022-10-04T10:38:06.134Z,33.70
2022-10-04T10:40:42.857Z,33.40
2022-10-04T10:43:19.631Z,33.10
2022-10-04T10:45:52.573Z,33.20
2022-10-04T10:48:31.049Z,33.60
2022-10-04T10:51:17.833Z,33.20
2022-10-04T10:54:12.149Z,32.20
2022-10-04T10:56:45.184Z,32.30
2022-10-04T10:59:49.806Z,32.20
2022-10-04T11:02:49.415Z,32.10
2022-10-04T11:05:25.566Z,31.80
2022-10-04T11:07:55.601Z,31.90
2022-10-04T11:10:36.751Z,31.80
2022-10-04T11:13:33.496Z,31.80
2022-10-04T11:16:28.640Z,31.40
2022-10-04T11:19:15.796Z,31.10
2022-10-04T11:22:13.738Z,31.10
2022-10-04T11:24:55.269Z,32.40
2022-10-04T11:27:49.009Z,33.90
2022-10-04T11:30:29.109Z,34.50
2022-10-04T11:33:27.962Z,36.10
2022-10-04T11:36:19.045Z,36.70
2022-10-04T11:38:52.089Z,37.40
2022-10-04T11:41:37.604Z,37.30
2022-10-04T11:44:25.892Z,38.50
2022-10-04T11:47:24.283Z,39.40
2022-10-04T11:49:56.487Z,40.00
2022-10-04T11:52:38.138Z,40.70
2022-10-04T11:55:24.049Z,40.80
2022-10-04T11:57:59.890Z,39.50
2022-10-04T12:00:51.836Z,38.90
2022-10-04T12:03:43.534Z,38.00
2022-10-04T12:06:34.349Z,38.40
2022-10-04T12:09:22.693Z,39.30
2022-10-04T12:12:07.213Z,40.30
2022-10-04T12:14:44.890Z,41.10
2022-10-04T12:17:29.065Z,41.90
2022-10-04T12:20:33.564Z,42.40
2022-10-04T12:23:23.859Z,43.60
2022-10-04T12:25:50.343Z,44.70
2022-10-04T12:28:35.873Z,45.40
2022-10-04T12:31:26.051Z,45.20
2022-10-04T12:34:14.480Z,45.90
2022-10-04T12:37:05.868Z,45.70
2022-10-04T12:39:53.379Z,46.20
2022-10-04T12:42:37.822Z,46.50
2022-10-04T12:45:42.003Z,46.60
2022-10-04T12:48:32.263Z,47.50
2022-10-04T12:51:07.030Z,48.40
2022-10-04T12:53:55.546Z,49.40
2022-10-04T12:57:01.562Z,49.20
2022-10-04T13:00:05.967Z,50.20
2022-10-04T13:03:00.539Z,50.90
2022-10-04T13:05:52.951Z,50.70
2022-10-04T13:08:30.238Z,51.30
2022-10-04T13:11:09.026Z,51.60
2022-10-04T13:13:54.927Z,51.20
2022-10-04T13:20:21.596Z,52.60
2022-10-04T13:22:57.121Z,52.60
2022-10-04T13:25:52.011Z,52.80
2022-10-04T13:28:22.354Z,52.40
2022-10-04T13:31:08.221Z,52.80
2022-10-04T13:33:48.891Z,54.00
2022-10-04T13:36:30.491Z,53.90
2022-10-04T13:39:29.868Z,53.50
2022-10-04T13:41:56.325Z,53.90
2022-10-04T13:45:19.523Z,54.20
2022-10-04T13:48:02.165Z,54.50
2022-10-04T13:50:31.305Z,54.10
2022-10-04T13:53:41.188Z,54.30
2022-10-04T13:56:36.853Z,54.50
2022-10-04T13:59:18.257Z,55.00
2022-10-04T14:02:11.993Z,55.00
2022-10-04T14:05:10.352Z,54.90
2022-10-04T14:08:21.786Z,54.30
2022-10-04T14:11:13.352Z,54.80
2022-10-04T14:14:01.100Z,55.40
2022-10-04T14:16:57.571Z,55.50
2022-10-04T14:20:11.657Z,55.60
2022-10-04T14:23:07.010Z,55.00
2022-10-04T14:25:48.593Z,55.90
2022-10-04T14:28:53.567Z,55.20
2022-10-04T14:32:02.707Z,54.80
2022-10-04T14:34:47.175Z,54.80
2022-10-04T14:37:44.833Z,55.10
2022-10-04T14:40:46.424Z,54.30
2022-10-04T14:43:46.642Z,53.70
2022-10-04T14:46:33.560Z,53.20
2022-10-04T14:49:10.954Z,53.60
2022-10-04T14:52:06.159Z,54.50
2022-10-04T14:54:43.922Z,54.60
2022-10-04T14:57:38.248Z,55.20
2022-10-04T15:00:18.377Z,55.00
2022-10-04T15:03:02.998Z,55.90
2022-10-04T15:05:38.091Z,56.00
2022-10-04T15:08:13.061Z,56.70
2022-10-04T15:10:51.953Z,56.80
2022-10-04T15:13:58.287Z,57.10
2022-10-04T15:16:53.446Z,58.00
2022-10-04T15:19:42.009Z,59.10
2022-10-04T15:22:22.807Z,59.40
2022-10-04T15:24:52.628Z,59.70
2022-10-04T15:27:33.812Z,59.80
2022-10-04T15:30:18.914Z,60.50
2022-10-04T15:33:19.135Z,60.00
2022-10-04T15:36:11.492Z,60.90
2022-10-04T15:39:02.496Z,61.80
2022-10-04T15:41:56.561Z,62.20
2022-10-04T15:45:01.417Z,62.80
2022-10-04T15:47:47.333Z,63.50
2022-10-04T15:50:27.747Z,64.10
2022-10-04T15:53:23.212Z,64.80
2022-10-04T15:55:58.164Z,65.10
2022-10-04T15:59:05.678Z,65.00
2022-10-04T16:01:46.051Z,65.10
2022-10-04T16:04:39.702Z,65.20
2022-10-04T16:07:29.093Z,65.90
2022-10-04T16:10:12.702Z,66.50
2022-10-04T16:13:09.169Z,66.80
2022-10-04T16:15:40.173Z,67.20
2022-10-04T16:18:44.423Z,67.40
2022-10-04T16:21:40.538Z,67.90
2022-10-04T16:24:21.966Z,68.10
2022-10-04T16:26:50.046Z,68.40
2022-10-04T16:29:29.939Z,67.90
2022-10-04T16:32:23.769Z,68.50
2022-10-04T16:35:00.012Z,68.90
2022-10-04T16:37:33.284Z,69.00
2022-10-04T16:40:15.495Z,69.40
2022-10-04T16:42:52.659Z,69.40
2022-10-04T16:45:35.306Z,69.50
2022-10-04T16:48:22.862Z,69.90
2022-10-04T16:51:01.130Z,70.10
2022-10-04T16:53:49.137Z,70.10
2022-10-04T16:56:24.263Z,70.70
2022-10-04T16:59:14.470Z,70.80
2022-10-04T17:02:05.628Z,71.10
2022-10-04T17:04:40.664Z,70.90
2022-10-04T17:07:11.667Z,71.00
2022-10-04T17:09:48.901Z,71.10
2022-10-04T17:12:35.857Z,71.30
2022-10-04T17:15:08.570Z,71.70
2022-10-04T17:18:10.505Z,71.70
2022-10-04T17:20:42.590Z,71.90
2022-10-04T17:23:47.386Z,71.90
2022-10-04T17:26:22.697Z,72.00
2022-10-04T17:29:06.834Z,72.10
2022-10-04T17:31:43.478Z,72.40
2022-10-04T17:34:29.577Z,72.60
2022-10-04T17:37:10.585Z,72.60
2022-10-04T17:39:57.602Z,72.40
2022-10-04T17:42:33.707Z,72.50
2022-10-04T17:45:18.437Z,72.60
2022-10-04T17:48:16.703Z,72.80
2022-10-04T17:51:20.505Z,73.10
2022-10-04T17:54:14.767Z,73.20
2022-10-04T17:57:10.529Z,73.20
2022-10-04T17:59:52.132Z,73.30
2022-10-04T18:02:37.418Z,73.50
2022-10-04T18:05:21.403Z,73.80
2022-10-04T18:08:03.023Z,74.00
2022-10-04T18:10:45.723Z,74.10
2022-10-04T18:14:00.659Z,74.10
2022-10-04T18:16:48.042Z,74.40
2022-10-04T18:19:49.961Z,74.40
2022-10-04T18:22:18.733Z,74.80
2022-10-04T18:24:47.320Z,74.60
2022-10-04T18:27:25.356Z,74.80
2022-10-04T18:30:15.371Z,75.10
2022-10-04T18:32:48.272Z,75.30
2022-10-04T18:35:30.190Z,75.20
2022-10-04T18:38:20.732Z,75.40
2022-10-04T18:41:02.470Z,75.50
2022-10-04T18:43:39.788Z,75.70
2022-10-04T18:46:12.370Z,75.50
2022-10-04T18:48:43.147Z,75.50
2022-10-04T18:51:39.176Z,75.80
2022-10-04T18:54:46.040Z,75.90
2022-10-04T18:57:31.577Z,75.90
2022-10-04T19:00:29.886Z,76.10
2022-10-04T19:03:04.807Z,76.30
2022-10-04T19:05:56.081Z,76.30
2022-10-04T19:08:40.610Z,76.40
2022-10-04T19:11:12.750Z,76.50
2022-10-04T19:13:45.466Z,76.60
2022-10-04T19:16:42.215Z,76.70
2022-10-04T19:19:17.358Z,77.10
2022-10-04T19:21:58.545Z,77.20
2022-10-04T19:24:44.967Z,77.30
2022-10-04T19:27:21.331Z,77.20
2022-10-04T19:30:04.552Z,77.40
2022-10-04T19:32:39.960Z,77.70
2022-10-04T19:35:43.516Z,77.70
2022-10-04T19:38:51.177Z,77.80
2022-10-04T19:41:43.786Z,77.80
2022-10-04T19:44:31.750Z,77.80
2022-10-04T19:47:24.836Z,78.10
2022-10-04T19:50:10.747Z,78.10
2022-10-04T19:52:44.227Z,78.10
2022-10-04T19:55:10.959Z,78.10
2022-10-04T19:57:38.143Z,78.10
2022-10-04T20:00:12.132Z,78.30
2022-10-04T20:02:48.402Z,78.40
2022-10-04T20:05:23.843Z,78.40
2022-10-04T20:07:55.831Z,78.30
2022-10-04T20:10:28.498Z,78.20
2022-10-04T20:13:20.712Z,78.10
2022-10-04T20:15:50.267Z,78.20
2022-10-04T20:18:31.521Z,78.00
2022-10-04T20:21:01.248Z,78.00
2022-10-04T20:23:48.579Z,78.00
2022-10-04T20:26:56.034Z,78.20
2022-10-04T20:29:37.667Z,78.10
2022-10-04T20:32:26.807Z,77.90
2022-10-04T20:34:55.189Z,77.90
2022-10-04T20:37:42.102Z,77.80
2022-10-04T20:40:08.427Z,77.90
2022-10-04T20:42:39.143Z,78.10
2022-10-04T20:45:09.044Z,78.50
2022-10-04T20:47:37.468Z,78.10
2022-10-04T20:50:13.700Z,78.10
2022-10-04T20:52:45.851Z,78.10
2022-10-04T20:55:27.576Z,78.30
2022-10-04T20:57:59.072Z,78.40
2022-10-04T21:00:29.276Z,78.30
2022-10-04T21:03:18.036Z,78.50
2022-10-04T21:05:58.054Z,78.80
2022-10-04T21:08:26.828Z,78.80
2022-10-04T21:11:08.353Z,78.90
2022-10-04T21:13:41.950Z,78.90
2022-10-04T21:16:08.611Z,78.70
2022-10-04T21:18:34.865Z,78.60
2022-10-04T21:21:01.507Z,79.00
2022-10-04T21:23:33.567Z,79.30
2022-10-04T21:26:22.473Z,79.50
2022-10-04T21:28:53.224Z,79.70
2022-10-04T21:31:19.359Z,79.40
2022-10-04T21:33:45.690Z,79.50
2022-10-04T21:36:12.319Z,79.70
2022-10-04T21:38:39.557Z,79.60
2022-10-04T21:41:06.167Z,79.60
2022-10-04T21:43:33.045Z,79.80
2022-10-04T21:45:59.475Z,80.00
2022-10-04T21:48:26.772Z,80.00
2022-10-04T21:50:55.410Z,79.90
2022-10-04T21:53:21.968Z,80.00
2022-10-04T21:55:51.160Z,79.90
2022-10-04T21:58:17.583Z,80.10
2022-10-04T22:00:46.930Z,80.20
2022-10-04T22:03:12.960Z,80.30
2022-10-04T22:05:39.076Z,80.40
2022-10-04T22:08:06.060Z,80.50
2022-10-04T22:10:33.184Z,80.70
2022-10-04T22:12:59.331Z,80.80
2022-10-04T22:15:28.180Z,80.90
2022-10-04T22:17:55.245Z,80.90
2022-10-04T22:20:22.227Z,80.90
2022-10-04T22:22:48.436Z,81.00
2022-10-04T22:25:20.761Z,81.00
2022-10-04T22:27:49.204Z,81.10
2022-10-04T22:30:29.200Z,81.20
2022-10-04T22:33:00.544Z,81.40
2022-10-04T22:35:29.737Z,81.60
2022-10-04T22:38:00.327Z,81.60
2022-10-04T22:40:28.305Z,81.60
2022-10-04T22:43:00.026Z,81.60
2022-10-04T22:45:32.680Z,81.70
2022-10-04T22:48:06.222Z,82.00
2022-10-04T22:50:37.482Z,82.00
2022-10-04T22:53:21.873Z,82.10
2022-10-04T22:55:49.432Z,82.30
2022-10-04T22:58:16.426Z,82.20
2022-10-04T23:00:44.187Z,82.30
2022-10-04T23:03:31.902Z,82.40
2022-10-04T23:06:00.120Z,82.50
2022-10-04T23:08:26.889Z,82.40
2022-10-04T23:10:57.791Z,82.60
2022-10-04T23:13:26.152Z,82.70
2022-10-04T23:15:58.352Z,82.70
2022-10-04T23:18:26.231Z,82.80
2022-10-04T23:20:58.877Z,82.80
2022-10-04T23:23:27.633Z,82.90
2022-10-04T23:25:54.164Z,82.90
2022-10-04T23:28:20.823Z,83.20
2022-10-04T23:31:15.839Z,83.30
2022-10-04T23:33:41.975Z,83.50
2022-10-04T23:36:13.381Z,83.30
2022-10-04T23:38:41.170Z,83.40
2022-10-04T23:41:11.791Z,83.40
2022-10-04T23:43:40.265Z,83.80
2022-10-04T23:46:14.088Z,83.40
2022-10-04T23:48:40.951Z,83.50
2022-10-04T23:51:13.508Z,83.70
2022-10-04T23:53:41.414Z,83.80
2022-10-04T23:56:28.683Z,83.90
2022-10-04T23:58:57.832Z,84.00
